Piloto Civil N. Fernández Airport
SAWG : rendu visible

Aérodrome :











RETROUVEZ-NOUS SUR...

 
LOGIN :

S'inscrire | Disclaimer

   EN    FR    IT 

 









Légende :    VFR   VFR Marginal   IFR   IFR Intensif   IFR Très Intensif
Visi : 
Plafond : 
>= 8 km
>= 3000ft
5 à 8 km
1000 à 3000 ft
1500m à 5 km
500 à 1000 ft
800 à 1500m
200 à 500 ft
< 800m
< 200 ft
Symboles :   Orages  Brouillard  Fortes neiges  Fortes précipitations  Vent > 20 kt






- Altitude de l'aérodrome : 61 ft
- Code IATA : RGL


SAWG - Piloto Civil N. Fernández

DERNIER METAR :
  • 011800Z 29014KT 9999 FEW030 13/04 Q0994

METARs EXPIRÉS :
  • 011700Z 27011KT CAVOK 13/04 Q0995
  • 011600Z 28008KT CAVOK 10/03 Q0996

TAF TAF SAWG
Valide du 01 à 18h jusqu'au 02 à 18h UTC


011700Z 0118/0218 29010G20KT CAVOK TX11/0118Z TN01/0209Z
TEMPO 0118/0121 26020G30KT 9999 SHRA SCT025 SCT060
BECMG 0123/0201 27015G25KT CAVOK
BECMG 0209/0212 25020G30KT
FIR SAVF / Amérique du Sud



MET'MAP, la Météo Aéronautique d'un coup d'oeil ! - Copyright ORBIFLY Décembre 2007 - Disclaimer

ORBIFLY MET'MAP TEAM :

Programmation & Développement : Alexandra Zaïnal
Sur une idée originale de : Baudouin d'Aumeries
Assistance à la programmation : Marc-Olivier Méhu
Soutien technique & logistique : Manuel Goepfert

Contact : metmap@orbifly.com




SOURCES & CREDITS :

   NOAA       Earth
Advisory